Time;durP1;ratioP1;P1;durP2;ratioP2;P2;SDS_P1;SDS_P2;PMS_P1;PMS_P2;Temp;Humidity;BMP_temperature;BMP_pressure;BME280_temperature;BME280_humidity;BME280_pressure;Samples;Min_cycle;Max_cycle;Signal;HPM_P1;HPM_P2
2021/11/19 00:00:45;;;;;;;27.30;14.10;;;11.80;98.30;;;;;;5048538;23;20451;-79
2021/11/19 00:02:48;;;;;;;28.80;14.17;;;11.80;98.30;;;;;;5048702;23;20456;-79
2021/11/19 00:04:52;;;;;;;38.53;13.97;;;11.80;98.30;;;;;;5048075;23;20471;-79
2021/11/19 00:06:55;;;;;;;32.70;12.20;;;11.80;98.30;;;;;;5048221;23;20520;-79
2021/11/19 00:08:58;;;;;;;29.37;12.83;;;11.80;98.30;;;;;;5044595;23;20440;-79
2021/11/19 00:11:04;;;;;;;22.30;11.33;;;11.80;98.30;;;;;;5044357;23;20436;-80
2021/11/19 00:13:07;;;;;;;21.87;12.07;;;11.80;98.30;;;;;;5044630;23;20431;-80
2021/11/19 00:15:12;;;;;;;25.00;12.83;;;11.80;98.30;;;;;;5044129;23;20969;-80
2021/11/19 00:17:15;;;;;;;26.77;11.40;;;11.80;98.30;;;;;;5045366;23;20486;-79
2021/11/19 00:19:18;;;;;;;25.50;11.43;;;11.80;98.30;;;;;;5043717;23;20938;-80
2021/11/19 00:21:21;;;;;;;26.67;12.97;;;11.80;98.30;;;;;;5043870;23;20443;-80
2021/11/19 00:23:25;;;;;;;29.70;12.43;;;11.90;98.30;;;;;;5043724;23;20441;-80
2021/11/19 00:25:29;;;;;;;25.97;12.10;;;11.80;98.30;;;;;;5043702;23;20477;-80
2021/11/19 00:27:32;;;;;;;26.70;11.23;;;11.80;98.30;;;;;;5044237;23;20445;-79
2021/11/19 00:29:35;;;;;;;23.97;13.07;;;11.90;98.30;;;;;;5051389;23;20778;-80
2021/11/19 00:31:41;;;;;;;29.37;12.13;;;11.90;98.30;;;;;;5043567;23;20461;-79
2021/11/19 00:33:48;;;;;;;20.40;12.23;;;11.80;98.30;;;;;;5043608;23;20453;-79
2021/11/19 00:35:51;;;;;;;30.17;14.20;;;11.80;98.30;;;;;;5043775;23;20461;-79
2021/11/19 00:37:56;;;;;;;23.50;12.80;;;11.90;98.30;;;;;;5047811;23;20809;-79
2021/11/19 00:40:00;;;;;;;21.63;11.70;;;11.90;98.30;;;;;;5044426;23;20414;-79
2021/11/19 00:42:05;;;;;;;19.77;10.77;;;11.90;98.30;;;;;;5043972;23;20434;-80
2021/11/19 00:44:10;;;;;;;21.20;11.90;;;11.90;98.30;;;;;;5043630;23;20430;-79
2021/11/19 00:46:13;;;;;;;18.17;10.97;;;11.90;98.30;;;;;;5043313;23;20491;-79
2021/11/19 00:48:19;;;;;;;27.10;11.57;;;11.90;98.30;;;;;;5051271;23;20433;-79
2021/11/19 00:50:25;;;;;;;20.03;11.67;;;11.90;98.30;;;;;;5043781;23;20444;-80
2021/11/19 00:52:28;;;;;;;20.93;10.30;;;11.90;98.30;;;;;;5044383;23;20436;-79
2021/11/19 00:54:31;;;;;;;23.50;10.30;;;11.90;98.30;;;;;;5043926;23;21112;-79
2021/11/19 00:56:36;;;;;;;17.90;10.20;;;11.90;98.30;;;;;;5044103;23;20746;-79
2021/11/19 00:58:39;;;;;;;23.50;10.67;;;12.00;98.30;;;;;;5043935;23;20451;-79
2021/11/19 01:00:46;;;;;;;20.50;9.30;;;12.00;98.30;;;;;;5044097;23;20441;-79
2021/11/19 01:02:49;;;;;;;20.50;10.53;;;12.00;98.30;;;;;;5052578;23;20506;-79
2021/11/19 01:04:54;;;;;;;19.97;8.60;;;12.00;98.30;;;;;;5043572;23;20467;-79
2021/11/19 01:06:57;;;;;;;22.20;9.27;;;12.00;98.30;;;;;;5043854;23;20841;-79
2021/11/19 01:09:03;;;;;;;22.27;8.20;;;12.00;98.30;;;;;;5043772;23;20434;-79
2021/11/19 01:11:11;;;;;;;23.47;8.33;;;12.00;98.30;;;;;;5051732;23;20422;-80
2021/11/19 01:13:15;;;;;;;20.80;8.93;;;12.00;98.30;;;;;;5043990;23;20433;-80
2021/11/19 01:15:22;;;;;;;22.00;10.00;;;12.00;98.30;;;;;;5043825;23;20508;-80
2021/11/19 01:17:28;;;;;;;18.13;8.53;;;12.10;98.30;;;;;;5043821;23;20465;-79
2021/11/19 01:19:34;;;;;;;13.57;7.83;;;12.00;98.30;;;;;;5043875;23;20420;-79
2021/11/19 01:21:41;;;;;;;20.57;8.90;;;12.00;98.30;;;;;;5044446;23;20436;-80
2021/11/19 01:23:44;;;;;;;17.37;9.40;;;12.00;98.30;;;;;;5043693;23;20419;-79
2021/11/19 01:25:50;;;;;;;16.07;8.10;;;12.00;98.30;;;;;;5043258;23;20458;-79
2021/11/19 01:27:53;;;;;;;17.37;8.30;;;12.00;98.30;;;;;;5043151;23;20470;-80
2021/11/19 01:29:56;;;;;;;15.83;6.70;;;12.00;98.30;;;;;;5042713;23;21115;-79
2021/11/19 01:32:06;;;;;;;11.90;6.53;;;12.10;98.30;;;;;;5050986;23;20448;-79
2021/11/19 01:34:09;;;;;;;19.60;7.80;;;12.00;98.30;;;;;;5043065;23;20428;-79
2021/11/19 01:36:13;;;;;;;14.17;7.63;;;12.00;98.30;;;;;;5042930;23;20989;-79
2021/11/19 01:38:17;;;;;;;13.70;7.63;;;12.10;98.30;;;;;;5042242;23;20433;-79
2021/11/19 01:40:23;;;;;;;19.20;9.20;;;12.00;98.30;;;;;;5042657;23;20800;-79
2021/11/19 01:42:30;;;;;;;12.33;8.20;;;12.00;98.30;;;;;;5042555;23;20756;-79
2021/11/19 01:44:36;;;;;;;11.70;6.53;;;12.10;98.30;;;;;;5042947;23;20430;-79
2021/11/19 01:46:44;;;;;;;14.17;6.57;;;12.00;98.30;;;;;;5042905;23;20441;-79
2021/11/19 01:48:49;;;;;;;17.60;6.40;;;12.00;98.30;;;;;;5042587;23;20442;-79
2021/11/19 01:50:57;;;;;;;13.50;5.70;;;12.00;98.30;;;;;;5051178;23;20419;-79
2021/11/19 01:53:05;;;;;;;23.37;8.53;;;12.00;98.30;;;;;;5042630;23;20456;-79
2021/11/19 01:55:15;;;;;;;13.30;7.23;;;12.00;98.30;;;;;;5042790;23;20494;-79
2021/11/19 01:57:22;;;;;;;10.70;5.60;;;12.10;98.30;;;;;;5042882;23;20523;-79
2021/11/19 01:59:31;;;;;;;16.97;6.13;;;12.10;98.30;;;;;;5042690;23;20741;-79
2021/11/19 02:01:38;;;;;;;12.93;6.43;;;12.10;98.30;;;;;;5050917;23;20485;-79
2021/11/19 02:03:44;;;;;;;14.77;6.30;;;12.10;98.30;;;;;;5050971;23;20465;-79
2021/11/19 02:06:02;;;;;;;17.70;6.27;;;12.10;98.30;;;;;;5042481;23;20520;-79
2021/11/19 02:08:09;;;;;;;16.70;5.90;;;12.10;98.30;;;;;;5042396;23;20438;-79
2021/11/19 02:10:20;;;;;;;12.00;5.70;;;12.20;98.30;;;;;;5042876;23;20427;-79
2021/11/19 02:12:32;;;;;;;13.63;5.90;;;12.10;98.30;;;;;;5042537;23;20463;-79
2021/11/19 02:14:45;;;;;;;13.90;6.40;;;12.10;98.30;;;;;;5042798;23;20413;-80
2021/11/19 02:16:51;;;;;;;11.60;6.20;;;12.10;98.30;;;;;;5050733;23;20430;-80
2021/11/19 02:18:59;;;;;;;14.27;6.30;;;12.10;98.30;;;;;;5042747;23;20437;-80
2021/11/19 02:21:06;;;;;;;15.13;6.40;;;12.10;98.30;;;;;;5042581;23;20417;-79
2021/11/19 02:23:12;;;;;;;19.13;6.50;;;12.10;98.30;;;;;;5051201;23;20410;-79
2021/11/19 02:25:19;;;;;;;15.90;6.57;;;12.10;98.30;;;;;;5043099;23;20453;-79
2021/11/19 02:27:25;;;;;;;14.23;6.87;;;12.10;98.30;;;;;;5051681;23;20414;-80
2021/11/19 02:29:30;;;;;;;9.40;5.47;;;12.10;98.30;;;;;;5042677;23;20530;-79
2021/11/19 02:31:36;;;;;;;12.03;5.10;;;12.10;98.30;;;;;;5042770;23;20460;-79
2021/11/19 02:33:41;;;;;;;11.83;6.77;;;12.20;98.30;;;;;;5042648;23;20511;-80
2021/11/19 02:35:51;;;;;;;12.80;6.10;;;12.10;98.30;;;;;;5042784;23;20772;-79
2021/11/19 02:37:58;;;;;;;13.27;5.93;;;12.10;98.30;;;;;;5042506;23;20436;-80
2021/11/19 02:40:08;;;;;;;12.47;6.10;;;12.10;98.30;;;;;;5042284;23;20430;-79
2021/11/19 02:42:18;;;;;;;13.73;6.07;;;12.10;98.30;;;;;;5042848;23;20418;-79
2021/11/19 02:44:23;;;;;;;13.83;5.90;;;12.10;98.30;;;;;;5042919;23;20419;-79
2021/11/19 02:46:30;;;;;;;16.80;6.27;;;12.10;98.30;;;;;;5042878;23;20493;-79
2021/11/19 02:48:35;;;;;;;22.50;7.33;;;12.10;98.30;;;;;;5043154;23;20430;-79
2021/11/19 02:50:38;;;;;;;13.87;6.17;;;12.10;98.30;;;;;;5050518;23;20971;-79
2021/11/19 02:52:44;;;;;;;13.77;6.80;;;12.20;98.30;;;;;;5042926;23;21368;-79
2021/11/19 02:54:48;;;;;;;17.83;6.23;;;12.10;98.30;;;;;;5043869;23;20458;-80
2021/11/19 02:56:54;;;;;;;16.17;6.87;;;12.20;98.30;;;;;;5044450;23;20436;-80
2021/11/19 02:59:01;;;;;;;21.40;6.20;;;12.10;98.30;;;;;;5043648;23;20430;-78
2021/11/19 03:01:09;;;;;;;12.30;5.97;;;12.10;98.30;;;;;;5044171;23;20972;-78
2021/11/19 03:03:12;;;;;;;15.20;6.63;;;12.20;98.30;;;;;;5052338;23;20407;-78
2021/11/19 03:05:19;;;;;;;19.30;6.17;;;12.20;98.30;;;;;;5044030;23;20456;-79
2021/11/19 03:07:23;;;;;;;12.40;5.77;;;12.20;98.30;;;;;;5044000;23;20427;-78
2021/11/19 03:09:29;;;;;;;10.73;5.63;;;12.20;98.30;;;;;;5043795;23;20436;-79
2021/11/19 03:11:32;;;;;;;11.90;5.70;;;12.20;98.30;;;;;;5043883;23;20470;-79
2021/11/19 03:13:38;;;;;;;12.63;5.60;;;12.10;98.30;;;;;;5043908;23;20484;-78
2021/11/19 03:15:45;;;;;;;14.70;6.30;;;12.20;98.30;;;;;;5043986;23;20483;-78
2021/11/19 03:17:48;;;;;;;17.07;6.10;;;12.20;98.30;;;;;;5043853;23;20988;-78
2021/11/19 03:19:51;;;;;;;17.57;7.10;;;12.20;98.30;;;;;;5043296;23;20771;-78
2021/11/19 03:21:54;;;;;;;16.10;5.90;;;12.10;98.30;;;;;;5043785;23;20442;-78
2021/11/19 03:23:58;;;;;;;16.17;6.43;;;12.20;98.30;;;;;;5043378;23;20444;-78
2021/11/19 03:26:02;;;;;;;11.73;5.83;;;12.10;98.30;;;;;;5043611;23;20992;-78
2021/11/19 03:28:06;;;;;;;13.50;5.60;;;12.10;98.30;;;;;;5043718;23;20489;-78
2021/11/19 03:30:11;;;;;;;15.87;5.60;;;12.10;98.30;;;;;;5043333;23;20441;-79
2021/11/19 03:32:19;;;;;;;24.03;6.23;;;12.10;98.30;;;;;;5043500;23;20439;-79
2021/11/19 03:34:23;;;;;;;13.53;5.40;;;12.10;98.30;;;;;;5043584;23;20458;-78
2021/11/19 03:36:29;;;;;;;14.17;8.00;;;12.20;98.30;;;;;;5043707;23;20438;-78
2021/11/19 03:38:35;;;;;;;12.60;5.23;;;12.10;98.30;;;;;;5043826;23;20444;-78
2021/11/19 03:40:41;;;;;;;16.87;6.27;;;12.20;98.30;;;;;;5043507;23;20445;-78
2021/11/19 03:42:44;;;;;;;14.33;6.10;;;12.20;98.30;;;;;;5043594;23;20422;-78
2021/11/19 03:44:50;;;;;;;21.27;6.20;;;12.20;98.30;;;;;;5043726;23;20447;-79
2021/11/19 03:46:55;;;;;;;15.60;5.80;;;12.20;98.30;;;;;;5043615;23;20442;-78
2021/11/19 03:48:59;;;;;;;14.53;6.63;;;12.20;98.30;;;;;;5043295;23;20476;-79
2021/11/19 03:51:08;;;;;;;9.23;5.70;;;12.10;98.30;;;;;;5043060;23;20439;-78
2021/11/19 03:53:12;;;;;;;17.00;5.87;;;12.20;98.30;;;;;;5043541;23;20434;-78
2021/11/19 03:55:17;;;;;;;13.33;6.10;;;12.20;98.30;;;;;;5042991;23;20458;-78
2021/11/19 03:57:22;;;;;;;13.90;6.23;;;12.20;98.30;;;;;;5043396;23;20548;-78
2021/11/19 03:59:26;;;;;;;16.20;6.60;;;12.10;98.30;;;;;;5042601;23;20434;-78
2021/11/19 04:01:32;;;;;;;11.57;5.97;;;12.20;98.30;;;;;;5043095;23;20488;-78
2021/11/19 04:03:36;;;;;;;12.57;6.07;;;12.10;98.30;;;;;;5043470;23;20755;-78
2021/11/19 04:05:40;;;;;;;15.77;6.20;;;12.20;98.30;;;;;;5042493;23;20478;-78
2021/11/19 04:07:43;;;;;;;17.77;5.83;;;12.20;98.30;;;;;;5043115;23;20477;-78
2021/11/19 04:09:47;;;;;;;9.53;5.90;;;12.20;98.30;;;;;;5043306;23;20438;-78
2021/11/19 04:11:50;;;;;;;11.40;5.60;;;12.20;98.30;;;;;;5051398;23;20912;-78
2021/11/19 04:13:54;;;;;;;10.60;7.30;;;12.20;98.30;;;;;;5051512;23;20450;-78
2021/11/19 04:15:59;;;;;;;14.50;6.33;;;12.20;98.30;;;;;;5042985;23;20513;-78
2021/11/19 04:18:02;;;;;;;14.60;5.93;;;12.20;98.30;;;;;;5043068;23;20434;-79
2021/11/19 04:20:20;;;;;;;10.63;5.50;;;12.20;98.30;;;;;;4944773;24;20432;-78
2021/11/19 04:22:24;;;;;;;15.20;6.37;;;12.20;98.30;;;;;;4946198;24;21032;-79
2021/11/19 04:24:34;;;;;;;14.77;7.43;;;12.20;98.30;;;;;;4953917;23;20422;-78
2021/11/19 04:26:37;;;;;;;12.03;5.67;;;12.20;98.30;;;;;;4946510;24;20425;-78
2021/11/19 04:28:40;;;;;;;14.10;6.10;;;12.20;98.30;;;;;;4946180;24;20482;-79
2021/11/19 04:30:45;;;;;;;10.60;5.67;;;12.20;98.30;;;;;;4953949;23;20528;-78
2021/11/19 04:32:49;;;;;;;17.60;7.00;;;12.20;98.30;;;;;;4946392;24;20508;-79
2021/11/19 04:34:55;;;;;;;9.80;5.50;;;12.20;98.30;;;;;;4946083;23;20471;-78
2021/11/19 04:36:58;;;;;;;15.60;7.27;;;12.20;98.30;;;;;;4954295;24;20418;-79
2021/11/19 04:39:04;;;;;;;28.07;6.77;;;12.20;98.30;;;;;;4945763;24;20880;-79
2021/11/19 04:41:07;;;;;;;13.70;5.97;;;12.20;98.30;;;;;;4946480;24;21105;-78
2021/11/19 04:43:10;;;;;;;11.50;7.63;;;12.20;98.30;;;;;;4946138;24;21005;-78
2021/11/19 04:45:16;;;;;;;13.40;5.90;;;12.20;98.30;;;;;;4945479;23;20952;-78
2021/11/19 04:47:20;;;;;;;16.97;7.30;;;12.20;98.30;;;;;;4946181;24;20423;-78
2021/11/19 04:49:23;;;;;;;15.33;7.13;;;12.20;98.30;;;;;;4945675;24;20851;-79
2021/11/19 04:51:29;;;;;;;11.60;6.13;;;12.20;98.30;;;;;;4990581;23;20497;-78
2021/11/19 04:53:32;;;;;;;16.53;7.33;;;12.20;98.30;;;;;;5043213;23;20503;-78
2021/11/19 04:55:36;;;;;;;17.10;7.50;;;12.10;98.30;;;;;;5042743;23;20462;-78
2021/11/19 04:57:40;;;;;;;31.60;9.50;;;12.10;98.30;;;;;;5042703;23;20441;-79
2021/11/19 04:59:43;;;;;;;11.73;7.53;;;12.10;98.30;;;;;;5042748;23;20443;-78
2021/11/19 05:01:48;;;;;;;14.10;7.30;;;12.10;98.30;;;;;;5042984;23;20437;-78
2021/11/19 05:03:51;;;;;;;15.20;6.40;;;12.10;98.30;;;;;;5042554;23;20468;-79
2021/11/19 05:05:55;;;;;;;21.13;7.57;;;12.10;98.30;;;;;;5042506;23;21034;-78
2021/11/19 05:07:58;;;;;;;11.90;7.70;;;12.10;98.30;;;;;;5042876;23;20441;-78
2021/11/19 05:10:01;;;;;;;20.27;7.30;;;12.10;98.30;;;;;;5042738;23;20488;-78
2021/11/19 05:12:08;;;;;;;15.67;7.70;;;12.10;98.30;;;;;;5042743;23;20521;-78
2021/11/19 05:14:11;;;;;;;17.23;7.73;;;12.10;98.30;;;;;;5042691;23;20465;-78
2021/11/19 05:16:16;;;;;;;18.47;7.67;;;12.10;98.30;;;;;;5042605;23;20483;-78
2021/11/19 05:18:20;;;;;;;18.47;7.70;;;12.10;98.30;;;;;;5050540;23;20435;-78
2021/11/19 05:20:24;;;;;;;14.30;6.70;;;12.10;98.30;;;;;;5042581;23;20977;-79
2021/11/19 05:22:27;;;;;;;18.13;7.63;;;12.10;98.30;;;;;;5042866;23;20432;-79
2021/11/19 05:24:30;;;;;;;12.50;7.00;;;12.10;98.30;;;;;;5042290;23;20439;-78
2021/11/19 05:26:33;;;;;;;15.80;7.13;;;12.10;98.30;;;;;;5042654;23;20453;-78
2021/11/19 05:28:38;;;;;;;15.97;6.80;;;12.10;98.30;;;;;;5042407;23;20430;-78
2021/11/19 05:30:42;;;;;;;13.93;7.90;;;12.10;98.30;;;;;;5042564;23;20486;-78
2021/11/19 05:32:45;;;;;;;12.80;5.63;;;12.10;98.30;;;;;;5042664;23;20809;-78
2021/11/19 05:34:48;;;;;;;16.13;6.17;;;12.10;98.30;;;;;;5042457;23;20958;-78
2021/11/19 05:36:52;;;;;;;14.93;7.50;;;12.10;98.30;;;;;;5050795;23;20904;-78
2021/11/19 05:38:55;;;;;;;20.20;9.53;;;12.10;98.30;;;;;;5042128;23;20464;-78
2021/11/19 05:40:58;;;;;;;15.00;7.40;;;12.10;98.30;;;;;;5050755;23;20426;-79
2021/11/19 05:43:02;;;;;;;15.43;6.73;;;12.10;98.30;;;;;;5050912;23;20478;-78
2021/11/19 05:45:08;;;;;;;15.83;7.93;;;12.10;98.30;;;;;;5042472;23;20450;-79
2021/11/19 05:47:11;;;;;;;14.73;7.30;;;12.10;98.30;;;;;;5042411;23;20420;-79
2021/11/19 05:49:17;;;;;;;20.83;7.43;;;12.10;98.30;;;;;;5049863;23;20804;-79
2021/11/19 05:51:22;;;;;;;21.87;7.87;;;12.20;98.30;;;;;;5042341;23;20444;-78
2021/11/19 05:53:25;;;;;;;23.47;7.70;;;12.10;98.30;;;;;;5042634;23;20438;-79
2021/11/19 05:55:30;;;;;;;13.43;6.40;;;12.10;98.30;;;;;;5041737;23;20469;-79
2021/11/19 05:57:33;;;;;;;19.10;7.77;;;12.20;98.30;;;;;;5042547;23;20430;-79
2021/11/19 05:59:37;;;;;;;17.27;6.73;;;12.10;98.30;;;;;;5042439;23;20437;-79
2021/11/19 06:01:41;;;;;;;19.20;6.60;;;12.20;98.30;;;;;;5042650;23;20434;-79
2021/11/19 06:03:45;;;;;;;15.40;6.00;;;12.20;98.30;;;;;;5044244;23;20439;-78
2021/11/19 06:05:48;;;;;;;23.73;7.43;;;12.20;98.30;;;;;;5044551;23;20456;-78
2021/11/19 09:28:05;;;;;;;9.47;7.50;;;12.50;98.30;;;;;;5054006;23;21005;-82
2021/11/19 09:31:05;;;;;;;19.63;8.17;;;12.50;98.30;;;;;;5051513;23;20426;-83
2021/11/19 09:33:57;;;;;;;23.20;9.27;;;12.50;98.30;;;;;;5042188;23;20942;-82
2021/11/19 09:57:01;;;;;;;13.07;8.67;;;12.60;98.30;;;;;;4930184;24;20994;-82
2021/11/19 09:59:35;;;;;;;12.30;10.33;;;12.60;98.30;;;;;;4983628;23;20678;-82
2021/11/19 10:02:18;;;;;;;11.87;8.17;;;12.60;98.30;;;;;;5095744;23;21003;-83
2021/11/19 10:11:25;;;;;;;20.00;8.30;;;12.60;98.30;;;;;;4939314;23;20421;-82
2021/11/19 10:13:56;;;;;;;19.97;9.50;;;12.60;98.30;;;;;;5037291;23;20437;-82
2021/11/19 10:16:24;;;;;;;16.00;8.30;;;12.70;98.30;;;;;;5125633;23;20453;-83
2021/11/19 10:18:40;;;;;;;16.77;8.30;;;12.60;98.30;;;;;;5117021;23;20461;-85
2021/11/19 10:24:28;;;;;;;12.17;7.87;;;12.60;98.30;;;;;;5020030;23;20427;-84
2021/11/19 10:26:41;;;;;;;13.63;8.33;;;12.70;98.30;;;;;;5029072;23;20470;-83
2021/11/19 10:28:52;;;;;;;14.23;8.70;;;12.60;98.30;;;;;;5028525;23;20449;-82
2021/11/19 10:31:01;;;;;;;11.93;8.30;;;12.60;98.30;;;;;;5113016;23;20426;-82
2021/11/19 10:33:14;;;;;;;10.83;8.50;;;12.70;98.30;;;;;;5126980;23;20425;-83
2021/11/19 10:35:50;;;;;;;12.80;8.30;;;12.70;98.30;;;;;;5117535;23;20417;-82
2021/11/19 10:38:41;;;;;;;12.70;8.50;;;12.70;98.30;;;;;;5119745;23;20452;-82
2021/11/19 10:45:01;;;;;;;11.70;7.10;;;12.70;98.30;;;;;;5122696;23;20485;-82
2021/11/19 10:47:22;;;;;;;13.00;8.43;;;12.70;98.30;;;;;;5129146;23;20417;-82
2021/11/19 10:53:28;;;;;;;10.50;8.23;;;12.70;98.30;;;;;;5120994;23;20901;-82
2021/11/19 10:56:17;;;;;;;26.03;9.87;;;12.70;98.30;;;;;;5113888;23;20447;-82
2021/11/19 10:58:45;;;;;;;12.13;8.33;;;12.70;98.30;;;;;;5116728;23;20442;-82
2021/11/19 11:01:17;;;;;;;10.83;8.07;;;12.70;98.30;;;;;;5120537;23;20896;-84
2021/11/19 11:03:27;;;;;;;12.20;8.40;;;12.70;98.30;;;;;;5129752;23;20436;-82
2021/11/19 11:05:35;;;;;;;16.87;8.57;;;12.70;98.30;;;;;;5128560;23;20449;-84
2021/11/19 11:07:42;;;;;;;13.70;9.40;;;12.70;98.30;;;;;;5127886;23;20506;-84
2021/11/19 11:09:52;;;;;;;17.90;8.60;;;12.70;98.30;;;;;;5129364;23;20427;-82
2021/11/19 11:12:08;;;;;;;11.93;6.17;;;12.70;98.30;;;;;;5133468;23;20481;-85
2021/11/19 11:14:12;;;;;;;12.80;8.53;;;12.70;98.30;;;;;;5131874;23;20436;-83
2021/11/19 11:16:27;;;;;;;11.90;8.47;;;12.70;98.30;;;;;;5131509;23;20445;-84
2021/11/19 11:18:32;;;;;;;13.40;7.67;;;12.70;98.30;;;;;;5129789;23;20476;-83
2021/11/19 11:20:38;;;;;;;16.70;8.37;;;12.70;98.30;;;;;;5128928;23;20432;-85
2021/11/19 11:22:51;;;;;;;12.03;8.80;;;12.80;98.30;;;;;;5129735;23;20462;-83
2021/11/19 11:24:58;;;;;;;17.43;8.23;;;12.80;98.30;;;;;;5129617;23;20710;-83
2021/11/19 11:27:15;;;;;;;15.90;6.63;;;12.80;98.30;;;;;;5129136;23;20424;-84
2021/11/19 11:29:36;;;;;;;15.57;8.20;;;12.80;98.30;;;;;;5127758;23;20464;-84
2021/11/19 11:31:50;;;;;;;13.93;8.57;;;12.70;98.30;;;;;;5118831;23;20455;-84
2021/11/19 11:33:57;;;;;;;11.90;7.17;;;12.80;98.30;;;;;;5127713;23;21297;-84
2021/11/19 11:36:09;;;;;;;8.30;6.83;;;12.80;98.30;;;;;;5128150;23;20958;-83
2021/11/19 11:38:31;;;;;;;16.07;6.93;;;12.80;98.30;;;;;;5129055;23;20547;-83
2021/11/19 11:40:38;;;;;;;12.80;6.97;;;12.80;98.30;;;;;;5106396;23;20426;-84
2021/11/19 11:42:44;;;;;;;12.60;6.60;;;12.80;98.30;;;;;;5128454;23;20422;-84
2021/11/19 11:44:55;;;;;;;12.40;6.80;;;12.70;98.30;;;;;;5128579;23;20460;-84
2021/11/19 11:47:05;;;;;;;16.07;6.20;;;12.80;98.30;;;;;;5129068;23;20811;-82
2021/11/19 11:49:21;;;;;;;18.10;7.37;;;12.80;98.30;;;;;;5130242;23;20459;-84
2021/11/19 11:51:30;;;;;;;13.63;6.23;;;12.80;98.30;;;;;;5128912;23;21159;-84
2021/11/19 11:54:03;;;;;;;14.10;7.03;;;12.80;98.30;;;;;;5128846;23;20425;-81
2021/11/19 11:56:17;;;;;;;16.87;6.00;;;12.80;98.30;;;;;;5127556;23;20738;-83
2021/11/19 11:58:45;;;;;;;10.43;4.70;;;12.90;98.30;;;;;;5127310;23;20448;-85
2021/11/19 12:00:57;;;;;;;12.43;6.60;;;12.90;98.30;;;;;;5129605;23;20924;-84
2021/11/19 12:03:22;;;;;;;12.83;5.47;;;12.90;98.30;;;;;;5124988;23;20464;-86
2021/11/19 12:05:39;;;;;;;13.20;5.90;;;12.90;98.30;;;;;;5128631;23;20419;-86
2021/11/19 12:07:51;;;;;;;10.30;7.03;;;12.90;98.30;;;;;;5129853;23;20448;-86
2021/11/19 12:10:06;;;;;;;12.30;6.90;;;12.90;98.30;;;;;;5130755;23;20416;-85
2021/11/19 12:12:36;;;;;;;13.80;6.13;;;12.90;98.30;;;;;;5130693;23;20448;-86
2021/11/19 12:14:48;;;;;;;11.63;6.50;;;12.90;98.30;;;;;;5112482;23;20461;-86
2021/11/19 12:17:00;;;;;;;13.80;6.10;;;12.90;98.30;;;;;;5135239;23;20448;-86
2021/11/19 12:19:13;;;;;;;9.43;6.03;;;12.90;98.30;;;;;;5139401;23;20525;-86
2021/11/19 12:21:22;;;;;;;11.80;5.57;;;12.90;98.30;;;;;;5131223;23;20589;-86
2021/11/19 12:23:38;;;;;;;11.30;6.37;;;12.90;98.30;;;;;;5129471;23;20428;-85
2021/11/19 12:25:58;;;;;;;12.57;5.77;;;12.90;98.30;;;;;;5128271;23;20429;-86
2021/11/19 12:28:03;;;;;;;8.60;5.00;;;12.90;98.30;;;;;;5128332;23;20440;-86
2021/11/19 12:30:16;;;;;;;10.63;5.70;;;12.90;98.30;;;;;;5129567;23;20432;-86
2021/11/19 12:32:24;;;;;;;15.70;6.93;;;12.80;98.30;;;;;;5121622;23;20467;-87
2021/11/19 12:34:33;;;;;;;13.90;5.60;;;12.80;98.30;;;;;;5126129;23;20504;-86
2021/11/19 12:36:44;;;;;;;14.17;6.50;;;12.80;98.30;;;;;;5134573;23;20448;-87
2021/11/19 12:38:55;;;;;;;7.33;5.43;;;12.90;98.30;;;;;;5134234;23;20949;-87
2021/11/19 12:41:05;;;;;;;15.87;5.27;;;12.90;98.30;;;;;;5140817;23;20458;-87
2021/11/19 12:43:54;;;;;;;12.67;6.07;;;12.90;98.30;;;;;;5132147;23;20457;-87
2021/11/19 12:46:01;;;;;;;14.47;6.13;;;12.90;98.30;;;;;;5132089;23;20428;-87
2021/11/19 12:48:39;;;;;;;13.20;6.27;;;12.90;98.30;;;;;;5133222;23;20453;-86
2021/11/19 12:50:46;;;;;;;14.87;5.00;;;12.90;98.30;;;;;;5134808;23;20900;-87
2021/11/19 12:53:07;;;;;;;13.13;5.73;;;12.90;98.30;;;;;;5133766;23;20521;-86
2021/11/19 12:55:27;;;;;;;10.33;4.93;;;12.90;98.30;;;;;;5132143;23;20432;-86
2021/11/19 12:57:59;;;;;;;17.40;4.53;;;12.90;98.30;;;;;;5132209;23;20451;-86
2021/11/19 13:00:19;;;;;;;11.43;5.80;;;12.90;98.30;;;;;;5121589;23;20505;-86
2021/11/19 13:02:31;;;;;;;11.53;5.17;;;12.90;98.30;;;;;;5130460;23;20431;-85
2021/11/19 13:04:37;;;;;;;11.83;5.47;;;12.90;98.30;;;;;;5129235;23;20441;-86
2021/11/19 13:06:44;;;;;;;16.23;5.33;;;12.90;98.30;;;;;;5128826;23;20458;-87
2021/11/19 13:08:52;;;;;;;18.50;8.00;;;12.90;98.30;;;;;;5127736;23;20448;-86
2021/11/19 13:11:57;;;;;;;14.83;5.40;;;12.80;98.30;;;;;;5121927;23;20493;-86
2021/11/19 13:14:33;;;;;;;20.17;4.80;;;12.90;98.30;;;;;;5130166;23;20441;-86
2021/11/19 13:16:37;;;;;;;15.97;5.90;;;12.90;98.30;;;;;;5129378;23;20422;-87
2021/11/19 13:18:44;;;;;;;12.73;4.80;;;12.90;98.30;;;;;;5128987;23;20856;-87
2021/11/19 13:20:57;;;;;;;14.47;4.40;;;12.90;98.30;;;;;;5134426;23;20414;-86
2021/11/19 13:23:45;;;;;;;11.53;5.27;;;12.90;98.30;;;;;;5132852;23;20428;-88
2021/11/19 13:25:50;;;;;;;12.83;4.33;;;12.90;98.30;;;;;;5131603;23;20409;-87
2021/11/19 13:27:56;;;;;;;23.60;6.53;;;12.90;98.30;;;;;;5128716;23;20461;-87
2021/11/19 13:30:03;;;;;;;11.80;5.30;;;12.80;98.30;;;;;;5128938;23;20430;-86
2021/11/19 13:32:55;;;;;;;10.00;4.80;;;12.80;98.30;;;;;;5128731;23;20759;-87
2021/11/19 13:35:02;;;;;;;13.60;4.47;;;12.80;98.30;;;;;;5121443;23;20424;-86
2021/11/19 13:38:04;;;;;;;17.57;5.20;;;12.80;98.30;;;;;;5128750;23;20468;-87
2021/11/19 13:40:36;;;;;;;10.90;4.37;;;12.90;98.30;;;;;;5121785;23;20461;-86
2021/11/19 13:42:48;;;;;;;8.73;4.30;;;12.80;98.30;;;;;;5129692;23;20453;-86
2021/11/19 13:45:01;;;;;;;15.80;5.90;;;12.80;98.30;;;;;;5129929;23;20489;-87
2021/11/19 13:47:53;;;;;;;21.80;5.57;;;12.80;98.30;;;;;;5128722;23;20419;-87
2021/11/19 13:50:07;;;;;;;13.40;5.27;;;12.80;98.30;;;;;;5053857;23;20920;-86
2021/11/19 13:52:21;;;;;;;15.50;5.80;;;12.80;98.30;;;;;;5053176;23;20443;-87
2021/11/19 13:54:33;;;;;;;14.63;4.53;;;12.80;98.30;;;;;;5061306;23;20449;-87
2021/11/19 13:56:40;;;;;;;15.17;4.50;;;12.80;98.30;;;;;;5129815;23;20438;-86
2021/11/19 13:58:52;;;;;;;12.73;5.97;;;12.80;98.30;;;;;;5129970;23;20537;-87
2021/11/19 14:01:01;;;;;;;17.20;4.70;;;12.70;98.30;;;;;;5103882;23;20459;-79
2021/11/19 14:03:12;;;;;;;13.00;5.27;;;12.70;98.30;;;;;;5094582;23;20933;-79
2021/11/19 14:05:19;;;;;;;13.33;4.27;;;12.80;98.30;;;;;;5094975;23;20422;-79
2021/11/19 14:07:24;;;;;;;13.20;5.40;;;12.80;98.30;;;;;;5102739;23;20425;-79
2021/11/19 14:09:45;;;;;;;13.50;5.53;;;12.70;98.30;;;;;;5102500;23;20501;-80
2021/11/19 14:11:57;;;;;;;12.77;4.90;;;12.80;98.30;;;;;;5077377;23;20531;-79
2021/11/19 14:14:14;;;;;;;10.80;4.80;;;12.70;98.30;;;;;;5078062;23;20819;-79
2021/11/19 14:18:50;;;;;;;10.50;4.70;;;12.80;98.30;;;;;;5071720;23;20448;-82
2021/11/19 14:23:34;;;;;;;14.23;4.67;;;12.70;98.30;;;;;;5085211;23;20429;-81
2021/11/19 14:25:40;;;;;;;11.50;4.80;;;12.80;98.30;;;;;;5084639;23;20415;-81
2021/11/19 14:27:46;;;;;;;19.33;4.80;;;12.70;98.30;;;;;;5085139;23;20460;-81
2021/11/19 14:29:55;;;;;;;18.37;4.93;;;12.70;98.30;;;;;;5084778;23;20447;-81
2021/11/19 14:32:04;;;;;;;13.90;5.60;;;12.70;98.30;;;;;;5085488;23;20498;-81
2021/11/19 14:34:12;;;;;;;18.77;5.70;;;12.70;98.30;;;;;;5085210;23;20514;-80
2021/11/19 14:36:20;;;;;;;11.00;3.90;;;12.70;98.30;;;;;;5075203;23;20505;-81
2021/11/19 14:38:30;;;;;;;11.40;4.20;;;12.70;98.30;;;;;;5083833;23;20450;-81
2021/11/19 14:40:39;;;;;;;11.20;5.60;;;12.70;98.30;;;;;;5084086;23;20522;-82
2021/11/19 14:42:43;;;;;;;7.20;4.40;;;12.70;98.30;;;;;;5084938;23;20422;-82
2021/11/19 14:44:52;;;;;;;16.53;5.10;;;12.70;98.30;;;;;;5083770;23;20432;-81
2021/11/19 14:47:01;;;;;;;11.10;4.50;;;12.70;98.30;;;;;;5084095;23;20433;-81
2021/11/19 14:49:10;;;;;;;11.70;4.90;;;12.70;98.30;;;;;;5084156;23;20407;-81
2021/11/19 14:51:30;;;;;;;17.13;5.60;;;12.70;98.30;;;;;;5076338;23;20464;-81
2021/11/19 14:53:40;;;;;;;10.60;4.83;;;12.70;98.30;;;;;;5084580;23;20423;-81
2021/11/19 14:56:00;;;;;;;15.27;6.07;;;12.70;98.30;;;;;;5077073;23;20431;-84
2021/11/19 14:58:19;;;;;;;11.43;4.13;;;12.60;98.30;;;;;;5077990;23;20444;-81
2021/11/19 15:00:34;;;;;;;13.80;5.90;;;12.60;98.30;;;;;;5076636;23;20493;-81
2021/11/19 15:02:40;;;;;;;11.00;4.93;;;12.60;98.30;;;;;;5077640;23;20419;-81
2021/11/19 15:04:47;;;;;;;15.53;5.43;;;12.70;98.30;;;;;;5076880;23;20431;-81
2021/11/19 15:06:49;;;;;;;9.57;4.60;;;12.70;98.30;;;;;;5085929;23;20439;-81
2021/11/19 15:09:20;;;;;;;15.73;5.70;;;12.70;98.30;;;;;;5076864;23;20432;-81
2021/11/19 15:11:32;;;;;;;15.23;4.93;;;12.60;98.30;;;;;;5085566;23;20469;-81